To NAV CANADA Home Page Login to a new session Search on AWWS site Feedback and Comments Disclaimer Vers la page française équivalente Tips FAQ What's new on the site To the Forecasts and Observations / NOTAM section To "File a Flight Plan" website Publications and other links Update of the User's profile FIC Telephone Numbers My Weather Data Folder Route Weather Data Regional Weather Data Local Weather Data To the Forecasts and Observations / NOTAM section
Request Generated 04/21/2015 at 06:30:55 UTC . Weather information available at that time is displayed.

METAR/TAF

MONTREAL/PIERRE-ELLIOTT-TRUDEAU INTL/QC    

METAR CYUL 210600Z 12007KT 15SM BKN050 10/06 A2960 RMK SC7 SLP024=
METAR CYUL 210500Z 10009G16KT 15SM FEW030 BKN055 BKN080 10/06 A2961
RMK SC1SC6AC1 SC TR SLP026=
SPECI CYUL 210449Z 11011G20KT 15SM FEW030 BKN060 BKN080 10/06 A2961
RMK SC1SC5AC2 SC TR SLP027=
METAR CYUL 210400Z 12013KT 15SM -RA BKN055 OVC065 10/06 A2963 RMK
SC6SC2 SLP033=

TAF CYUL 210544Z 2106/2206 10010KT P6SM FEW030 BKN050 TEMPO 2106/2110
6SM -SHRA BR BKN030
FM211000 10008KT P6SM -RA OVC030 TEMPO 2110/2115 5SM -SHRA BR
OVC020
FM211500 24015G25KT P6SM -SHRA FEW020 OVC040
FM212100 24018G28KT P6SM SCT040
BECMG 2122/2124 22012KT
RMK NXT FCST BY 210900Z=
Your time UTC time
Weather data provided by Environment Canada and NAV CANADA